sensor_id;sensor_type;location;lat;lon;timestamp;P1;durP1;ratioP1;P2;durP2;ratioP2
48813;SDS011;34634;44.108;3.074;2022-08-25T00:01:23;3.75;;;1.95;;
48813;SDS011;34634;44.108;3.074;2022-08-25T00:03:49;3.47;;;2.00;;
48813;SDS011;34634;44.108;3.074;2022-08-25T00:06:16;4.40;;;1.60;;
48813;SDS011;34634;44.108;3.074;2022-08-25T00:08:43;3.00;;;1.88;;
48813;SDS011;34634;44.108;3.074;2022-08-25T00:11:17;3.83;;;2.10;;
48813;SDS011;34634;44.108;3.074;2022-08-25T00:13:45;5.75;;;2.00;;
48813;SDS011;34634;44.108;3.074;2022-08-25T00:16:13;4.40;;;1.90;;
48813;SDS011;34634;44.108;3.074;2022-08-25T00:18:40;2.58;;;1.75;;
48813;SDS011;34634;44.108;3.074;2022-08-25T00:21:07;3.28;;;1.80;;
48813;SDS011;34634;44.108;3.074;2022-08-25T00:23:33;2.10;;;1.90;;
48813;SDS011;34634;44.108;3.074;2022-08-25T00:26:00;4.60;;;1.77;;
48813;SDS011;34634;44.108;3.074;2022-08-25T00:28:27;2.42;;;2.03;;
48813;SDS011;34634;44.108;3.074;2022-08-25T00:30:54;2.35;;;1.80;;
48813;SDS011;34634;44.108;3.074;2022-08-25T00:33:21;2.75;;;1.90;;
48813;SDS011;34634;44.108;3.074;2022-08-25T00:35:47;3.45;;;2.25;;
48813;SDS011;34634;44.108;3.074;2022-08-25T00:38:14;2.92;;;1.73;;
48813;SDS011;34634;44.108;3.074;2022-08-25T00:40:40;2.58;;;1.63;;
48813;SDS011;34634;44.108;3.074;2022-08-25T00:43:07;1.92;;;1.70;;
48813;SDS011;34634;44.108;3.074;2022-08-25T00:45:34;2.85;;;1.70;;
48813;SDS011;34634;44.108;3.074;2022-08-25T00:48:00;2.42;;;1.80;;
48813;SDS011;34634;44.108;3.074;2022-08-25T00:50:28;3.75;;;2.13;;
48813;SDS011;34634;44.108;3.074;2022-08-25T00:52:55;3.78;;;2.05;;
48813;SDS011;34634;44.108;3.074;2022-08-25T00:55:24;3.17;;;2.05;;
48813;SDS011;34634;44.108;3.074;2022-08-25T00:58:03;3.08;;;2.00;;
48813;SDS011;34634;44.108;3.074;2022-08-25T01:00:32;3.38;;;1.85;;
48813;SDS011;34634;44.108;3.074;2022-08-25T01:03:00;4.00;;;1.98;;
48813;SDS011;34634;44.108;3.074;2022-08-25T01:05:26;2.63;;;2.17;;
48813;SDS011;34634;44.108;3.074;2022-08-25T01:07:53;3.60;;;2.05;;
48813;SDS011;34634;44.108;3.074;2022-08-25T01:10:20;2.03;;;1.80;;
48813;SDS011;34634;44.108;3.074;2022-08-25T01:12:47;3.30;;;1.60;;
48813;SDS011;34634;44.108;3.074;2022-08-25T01:15:14;3.13;;;1.70;;
48813;SDS011;34634;44.108;3.074;2022-08-25T01:17:49;4.03;;;1.70;;
48813;SDS011;34634;44.108;3.074;2022-08-25T01:20:16;1.85;;;1.70;;
48813;SDS011;34634;44.108;3.074;2022-08-25T01:22:44;3.42;;;2.10;;
48813;SDS011;34634;44.108;3.074;2022-08-25T01:25:32;2.63;;;1.60;;
48813;SDS011;34634;44.108;3.074;2022-08-25T01:28:00;2.30;;;1.92;;
48813;SDS011;34634;44.108;3.074;2022-08-25T01:30:26;4.13;;;1.90;;
48813;SDS011;34634;44.108;3.074;2022-08-25T01:32:53;3.75;;;2.00;;
48813;SDS011;34634;44.108;3.074;2022-08-25T01:35:19;2.92;;;2.00;;
48813;SDS011;34634;44.108;3.074;2022-08-25T01:37:45;3.63;;;2.10;;
48813;SDS011;34634;44.108;3.074;2022-08-25T01:40:12;4.03;;;1.90;;
48813;SDS011;34634;44.108;3.074;2022-08-25T01:45:08;3.90;;;2.00;;
48813;SDS011;34634;44.108;3.074;2022-08-25T01:47:35;3.72;;;1.98;;
48813;SDS011;34634;44.108;3.074;2022-08-25T01:50:03;3.90;;;1.88;;
48813;SDS011;34634;44.108;3.074;2022-08-25T01:52:35;3.50;;;1.90;;
48813;SDS011;34634;44.108;3.074;2022-08-25T01:55:02;3.70;;;1.80;;
48813;SDS011;34634;44.108;3.074;2022-08-25T01:57:29;2.63;;;2.10;;
48813;SDS011;34634;44.108;3.074;2022-08-25T01:59:56;2.38;;;1.75;;
48813;SDS011;34634;44.108;3.074;2022-08-25T02:02:23;1.83;;;1.45;;
48813;SDS011;34634;44.108;3.074;2022-08-25T02:04:49;3.53;;;1.63;;
48813;SDS011;34634;44.108;3.074;2022-08-25T02:07:15;4.97;;;2.00;;
48813;SDS011;34634;44.108;3.074;2022-08-25T02:09:41;3.22;;;2.08;;
48813;SDS011;34634;44.108;3.074;2022-08-25T02:12:08;4.50;;;1.92;;
48813;SDS011;34634;44.108;3.074;2022-08-25T02:14:35;2.00;;;1.80;;
48813;SDS011;34634;44.108;3.074;2022-08-25T02:17:02;5.90;;;2.15;;
48813;SDS011;34634;44.108;3.074;2022-08-25T02:19:29;3.85;;;2.00;;
48813;SDS011;34634;44.108;3.074;2022-08-25T02:21:55;4.63;;;2.20;;
48813;SDS011;34634;44.108;3.074;2022-08-25T02:24:22;5.57;;;2.03;;
48813;SDS011;34634;44.108;3.074;2022-08-25T02:26:48;5.05;;;2.10;;
48813;SDS011;34634;44.108;3.074;2022-08-25T02:29:15;2.50;;;2.08;;
48813;SDS011;34634;44.108;3.074;2022-08-25T02:31:41;2.35;;;2.05;;
48813;SDS011;34634;44.108;3.074;2022-08-25T02:34:08;3.53;;;2.00;;
48813;SDS011;34634;44.108;3.074;2022-08-25T02:36:35;2.75;;;2.28;;
48813;SDS011;34634;44.108;3.074;2022-08-25T02:39:02;2.63;;;1.88;;
48813;SDS011;34634;44.108;3.074;2022-08-25T02:41:29;3.85;;;1.80;;
48813;SDS011;34634;44.108;3.074;2022-08-25T02:43:55;5.72;;;1.98;;
48813;SDS011;34634;44.108;3.074;2022-08-25T02:46:22;3.30;;;2.00;;
48813;SDS011;34634;44.108;3.074;2022-08-25T02:48:49;2.95;;;2.00;;
48813;SDS011;34634;44.108;3.074;2022-08-25T02:51:17;2.65;;;2.00;;
48813;SDS011;34634;44.108;3.074;2022-08-25T02:53:44;3.63;;;2.00;;
48813;SDS011;34634;44.108;3.074;2022-08-25T02:56:11;2.53;;;2.33;;
48813;SDS011;34634;44.108;3.074;2022-08-25T02:58:39;3.55;;;2.10;;
48813;SDS011;34634;44.108;3.074;2022-08-25T03:01:06;6.72;;;2.17;;
48813;SDS011;34634;44.108;3.074;2022-08-25T03:03:37;4.25;;;1.90;;
48813;SDS011;34634;44.108;3.074;2022-08-25T03:06:06;3.80;;;1.98;;
48813;SDS011;34634;44.108;3.074;2022-08-25T03:08:32;2.67;;;1.88;;
48813;SDS011;34634;44.108;3.074;2022-08-25T03:10:58;2.70;;;1.70;;
48813;SDS011;34634;44.108;3.074;2022-08-25T03:13:25;3.25;;;1.73;;
48813;SDS011;34634;44.108;3.074;2022-08-25T03:15:51;6.00;;;2.33;;
48813;SDS011;34634;44.108;3.074;2022-08-25T03:18:18;2.83;;;1.70;;
48813;SDS011;34634;44.108;3.074;2022-08-25T03:20:45;2.72;;;1.90;;
48813;SDS011;34634;44.108;3.074;2022-08-25T03:23:11;4.05;;;2.00;;
48813;SDS011;34634;44.108;3.074;2022-08-25T03:25:38;5.53;;;2.20;;
48813;SDS011;34634;44.108;3.074;2022-08-25T03:28:24;2.15;;;1.95;;
48813;SDS011;34634;44.108;3.074;2022-08-25T03:30:51;3.35;;;2.00;;
48813;SDS011;34634;44.108;3.074;2022-08-25T03:33:18;3.70;;;2.22;;
48813;SDS011;34634;44.108;3.074;2022-08-25T03:35:44;2.83;;;2.00;;
48813;SDS011;34634;44.108;3.074;2022-08-25T03:38:11;2.97;;;1.95;;
48813;SDS011;34634;44.108;3.074;2022-08-25T03:40:37;2.83;;;2.33;;
48813;SDS011;34634;44.108;3.074;2022-08-25T03:43:03;4.95;;;1.90;;
48813;SDS011;34634;44.108;3.074;2022-08-25T03:45:30;5.65;;;1.80;;
48813;SDS011;34634;44.108;3.074;2022-08-25T03:47:56;3.38;;;1.98;;
48813;SDS011;34634;44.108;3.074;2022-08-25T03:50:22;2.65;;;2.08;;
48813;SDS011;34634;44.108;3.074;2022-08-25T03:52:52;3.33;;;2.03;;
48813;SDS011;34634;44.108;3.074;2022-08-25T03:55:19;2.97;;;2.40;;
48813;SDS011;34634;44.108;3.074;2022-08-25T03:57:47;5.93;;;2.13;;
48813;SDS011;34634;44.108;3.074;2022-08-25T04:00:13;3.20;;;2.00;;
48813;SDS011;34634;44.108;3.074;2022-08-25T04:02:40;5.22;;;2.45;;
48813;SDS011;34634;44.108;3.074;2022-08-25T04:05:07;6.82;;;2.40;;
48813;SDS011;34634;44.108;3.074;2022-08-25T04:07:33;2.35;;;1.95;;
48813;SDS011;34634;44.108;3.074;2022-08-25T04:09:59;3.60;;;2.20;;
48813;SDS011;34634;44.108;3.074;2022-08-25T04:12:26;2.85;;;2.15;;
48813;SDS011;34634;44.108;3.074;2022-08-25T04:14:52;5.28;;;2.50;;
48813;SDS011;34634;44.108;3.074;2022-08-25T04:17:18;7.75;;;2.50;;
48813;SDS011;34634;44.108;3.074;2022-08-25T04:19:45;4.28;;;2.22;;
48813;SDS011;34634;44.108;3.074;2022-08-25T04:22:11;2.22;;;2.08;;
48813;SDS011;34634;44.108;3.074;2022-08-25T04:24:37;5.18;;;2.45;;
48813;SDS011;34634;44.108;3.074;2022-08-25T04:27:04;5.55;;;2.40;;
48813;SDS011;34634;44.108;3.074;2022-08-25T04:29:30;2.70;;;2.50;;
48813;SDS011;34634;44.108;3.074;2022-08-25T04:31:56;3.47;;;2.05;;
48813;SDS011;34634;44.108;3.074;2022-08-25T04:34:24;3.85;;;2.22;;
48813;SDS011;34634;44.108;3.074;2022-08-25T04:36:50;3.83;;;2.30;;
48813;SDS011;34634;44.108;3.074;2022-08-25T04:39:17;3.30;;;2.15;;
48813;SDS011;34634;44.108;3.074;2022-08-25T04:41:45;2.85;;;2.22;;
48813;SDS011;34634;44.108;3.074;2022-08-25T04:44:11;2.85;;;2.35;;
48813;SDS011;34634;44.108;3.074;2022-08-25T04:46:38;3.95;;;2.53;;
48813;SDS011;34634;44.108;3.074;2022-08-25T04:49:04;4.35;;;2.22;;
48813;SDS011;34634;44.108;3.074;2022-08-25T04:51:32;2.30;;;2.10;;
48813;SDS011;34634;44.108;3.074;2022-08-25T04:54:00;5.20;;;2.33;;
48813;SDS011;34634;44.108;3.074;2022-08-25T04:56:27;4.90;;;2.03;;
48813;SDS011;34634;44.108;3.074;2022-08-25T04:58:53;3.10;;;2.22;;
48813;SDS011;34634;44.108;3.074;2022-08-25T05:01:21;3.72;;;2.03;;
48813;SDS011;34634;44.108;3.074;2022-08-25T05:03:52;3.45;;;2.10;;
48813;SDS011;34634;44.108;3.074;2022-08-25T05:06:18;5.25;;;2.13;;
48813;SDS011;34634;44.108;3.074;2022-08-25T05:08:45;4.57;;;2.53;;
48813;SDS011;34634;44.108;3.074;2022-08-25T05:11:12;4.75;;;1.98;;
48813;SDS011;34634;44.108;3.074;2022-08-25T05:13:39;4.55;;;2.58;;
48813;SDS011;34634;44.108;3.074;2022-08-25T05:16:07;3.35;;;2.50;;
48813;SDS011;34634;44.108;3.074;2022-08-25T05:18:33;4.88;;;2.28;;
48813;SDS011;34634;44.108;3.074;2022-08-25T05:21:02;6.32;;;2.65;;
48813;SDS011;34634;44.108;3.074;2022-08-25T05:23:28;3.38;;;2.40;;
48813;SDS011;34634;44.108;3.074;2022-08-25T05:25:55;5.32;;;2.58;;
48813;SDS011;34634;44.108;3.074;2022-08-25T05:28:21;53.03;;;7.30;;
48813;SDS011;34634;44.108;3.074;2022-08-25T05:30:47;13.27;;;3.10;;
48813;SDS011;34634;44.108;3.074;2022-08-25T05:33:14;5.28;;;2.85;;
48813;SDS011;34634;44.108;3.074;2022-08-25T05:35:41;19.02;;;3.58;;
48813;SDS011;34634;44.108;3.074;2022-08-25T05:38:08;25.88;;;3.85;;
48813;SDS011;34634;44.108;3.074;2022-08-25T05:40:34;8.18;;;2.67;;
48813;SDS011;34634;44.108;3.074;2022-08-25T05:43:01;8.30;;;3.10;;
48813;SDS011;34634;44.108;3.074;2022-08-25T05:45:27;5.57;;;2.50;;
48813;SDS011;34634;44.108;3.074;2022-08-25T05:47:53;5.65;;;2.85;;
48813;SDS011;34634;44.108;3.074;2022-08-25T05:50:20;6.55;;;2.30;;
48813;SDS011;34634;44.108;3.074;2022-08-25T05:52:46;17.55;;;3.53;;
48813;SDS011;34634;44.108;3.074;2022-08-25T05:55:12;11.45;;;3.00;;
48813;SDS011;34634;44.108;3.074;2022-08-25T05:57:40;29.50;;;3.20;;
48813;SDS011;34634;44.108;3.074;2022-08-25T06:00:06;191.93;;;12.18;;
48813;SDS011;34634;44.108;3.074;2022-08-25T06:02:33;110.75;;;8.82;;
48813;SDS011;34634;44.108;3.074;2022-08-25T06:05:06;128.80;;;8.30;;
48813;SDS011;34634;44.108;3.074;2022-08-25T06:07:33;13.35;;;3.00;;
48813;SDS011;34634;44.108;3.074;2022-08-25T06:10:01;48.22;;;4.45;;
48813;SDS011;34634;44.108;3.074;2022-08-25T06:12:27;196.45;;;9.65;;
48813;SDS011;34634;44.108;3.074;2022-08-25T06:14:55;159.82;;;6.93;;
48813;SDS011;34634;44.108;3.074;2022-08-25T06:17:21;10.88;;;2.47;;
48813;SDS011;34634;44.108;3.074;2022-08-25T06:19:47;11.73;;;2.50;;
48813;SDS011;34634;44.108;3.074;2022-08-25T06:22:13;6.05;;;2.20;;
48813;SDS011;34634;44.108;3.074;2022-08-25T06:24:40;39.35;;;5.25;;
48813;SDS011;34634;44.108;3.074;2022-08-25T06:27:06;80.60;;;8.00;;
48813;SDS011;34634;44.108;3.074;2022-08-25T06:29:32;33.50;;;4.30;;
48813;SDS011;34634;44.108;3.074;2022-08-25T06:31:59;17.48;;;3.13;;
48813;SDS011;34634;44.108;3.074;2022-08-25T06:34:25;34.20;;;4.30;;
48813;SDS011;34634;44.108;3.074;2022-08-25T06:36:51;24.70;;;4.90;;
48813;SDS011;34634;44.108;3.074;2022-08-25T06:39:18;12.32;;;3.17;;
48813;SDS011;34634;44.108;3.074;2022-08-25T06:41:44;6.13;;;3.25;;
48813;SDS011;34634;44.108;3.074;2022-08-25T06:44:10;13.57;;;2.90;;
48813;SDS011;34634;44.108;3.074;2022-08-25T06:46:37;10.05;;;3.28;;
48813;SDS011;34634;44.108;3.074;2022-08-25T06:49:04;7.03;;;2.92;;
48813;SDS011;34634;44.108;3.074;2022-08-25T06:51:31;12.45;;;3.03;;
48813;SDS011;34634;44.108;3.074;2022-08-25T06:54:00;7.05;;;2.95;;
48813;SDS011;34634;44.108;3.074;2022-08-25T06:56:26;11.32;;;2.85;;
48813;SDS011;34634;44.108;3.074;2022-08-25T06:58:53;5.53;;;2.58;;
48813;SDS011;34634;44.108;3.074;2022-08-25T07:01:21;6.75;;;3.00;;
48813;SDS011;34634;44.108;3.074;2022-08-25T07:03:48;8.70;;;2.50;;
48813;SDS011;34634;44.108;3.074;2022-08-25T07:06:15;3.95;;;2.80;;
48813;SDS011;34634;44.108;3.074;2022-08-25T07:08:43;5.22;;;2.78;;
48813;SDS011;34634;44.108;3.074;2022-08-25T07:11:10;6.60;;;2.65;;
48813;SDS011;34634;44.108;3.074;2022-08-25T07:13:38;2.80;;;2.17;;
48813;SDS011;34634;44.108;3.074;2022-08-25T07:16:05;2.78;;;2.17;;
48813;SDS011;34634;44.108;3.074;2022-08-25T07:18:32;5.80;;;2.88;;
48813;SDS011;34634;44.108;3.074;2022-08-25T07:20:58;4.80;;;2.47;;
48813;SDS011;34634;44.108;3.074;2022-08-25T07:23:25;8.05;;;2.63;;
48813;SDS011;34634;44.108;3.074;2022-08-25T07:25:52;7.75;;;2.70;;
48813;SDS011;34634;44.108;3.074;2022-08-25T07:28:19;5.07;;;2.13;;
48813;SDS011;34634;44.108;3.074;2022-08-25T07:30:45;4.60;;;2.42;;
48813;SDS011;34634;44.108;3.074;2022-08-25T07:33:12;2.53;;;2.10;;
48813;SDS011;34634;44.108;3.074;2022-08-25T07:35:38;11.73;;;2.75;;
48813;SDS011;34634;44.108;3.074;2022-08-25T07:38:05;4.22;;;2.35;;
48813;SDS011;34634;44.108;3.074;2022-08-25T07:40:33;6.65;;;2.15;;
48813;SDS011;34634;44.108;3.074;2022-08-25T07:43:02;4.85;;;2.30;;
48813;SDS011;34634;44.108;3.074;2022-08-25T07:45:30;5.38;;;2.42;;
48813;SDS011;34634;44.108;3.074;2022-08-25T07:47:57;8.02;;;2.28;;
48813;SDS011;34634;44.108;3.074;2022-08-25T07:50:24;9.30;;;2.55;;
48813;SDS011;34634;44.108;3.074;2022-08-25T07:52:50;6.10;;;2.30;;
48813;SDS011;34634;44.108;3.074;2022-08-25T07:55:17;6.90;;;2.10;;
48813;SDS011;34634;44.108;3.074;2022-08-25T07:57:43;7.05;;;2.30;;
48813;SDS011;34634;44.108;3.074;2022-08-25T08:00:12;3.80;;;2.42;;
48813;SDS011;34634;44.108;3.074;2022-08-25T08:02:39;3.35;;;2.28;;
48813;SDS011;34634;44.108;3.074;2022-08-25T08:05:07;5.70;;;2.40;;
48813;SDS011;34634;44.108;3.074;2022-08-25T08:07:34;10.73;;;3.15;;
48813;SDS011;34634;44.108;3.074;2022-08-25T08:10:00;6.07;;;2.10;;
48813;SDS011;34634;44.108;3.074;2022-08-25T08:12:27;8.00;;;2.28;;
48813;SDS011;34634;44.108;3.074;2022-08-25T08:14:54;11.77;;;2.17;;
48813;SDS011;34634;44.108;3.074;2022-08-25T08:17:20;4.80;;;2.25;;
48813;SDS011;34634;44.108;3.074;2022-08-25T08:19:46;5.82;;;2.20;;
48813;SDS011;34634;44.108;3.074;2022-08-25T08:22:13;5.13;;;2.55;;
48813;SDS011;34634;44.108;3.074;2022-08-25T08:24:40;16.80;;;9.23;;
48813;SDS011;34634;44.108;3.074;2022-08-25T08:27:08;18.33;;;9.95;;
48813;SDS011;34634;44.108;3.074;2022-08-25T08:29:36;17.40;;;5.50;;
48813;SDS011;34634;44.108;3.074;2022-08-25T08:32:03;6.03;;;4.00;;
48813;SDS011;34634;44.108;3.074;2022-08-25T08:34:29;9.05;;;5.80;;
48813;SDS011;34634;44.108;3.074;2022-08-25T08:36:56;12.90;;;8.35;;
48813;SDS011;34634;44.108;3.074;2022-08-25T08:39:23;9.48;;;6.50;;
48813;SDS011;34634;44.108;3.074;2022-08-25T08:53:15;12.02;;;4.82;;
48813;SDS011;34634;44.108;3.074;2022-08-25T08:55:30;10.27;;;4.45;;
48813;SDS011;34634;44.108;3.074;2022-08-25T08:57:57;5.70;;;3.58;;
48813;SDS011;34634;44.108;3.074;2022-08-25T09:00:25;10.20;;;3.90;;
48813;SDS011;34634;44.108;3.074;2022-08-25T09:05:19;6.28;;;2.95;;
48813;SDS011;34634;44.108;3.074;2022-08-25T09:07:48;6.57;;;3.50;;
48813;SDS011;34634;44.108;3.074;2022-08-25T09:10:16;8.55;;;3.28;;
48813;SDS011;34634;44.108;3.074;2022-08-25T09:13:03;11.13;;;3.17;;
48813;SDS011;34634;44.108;3.074;2022-08-25T09:15:37;3.83;;;2.47;;
48813;SDS011;34634;44.108;3.074;2022-08-25T09:28:19;10.82;;;2.25;;
48813;SDS011;34634;44.108;3.074;2022-08-25T09:33:35;6.28;;;2.00;;
48813;SDS011;34634;44.108;3.074;2022-08-25T09:36:02;6.43;;;2.75;;
48813;SDS011;34634;44.108;3.074;2022-08-25T09:38:28;2.47;;;2.00;;
48813;SDS011;34634;44.108;3.074;2022-08-25T09:40:57;4.22;;;1.85;;
48813;SDS011;34634;44.108;3.074;2022-08-25T09:48:55;4.93;;;1.58;;
48813;SDS011;34634;44.108;3.074;2022-08-25T09:51:32;5.00;;;2.70;;
48813;SDS011;34634;44.108;3.074;2022-08-25T09:54:01;6.18;;;1.90;;
48813;SDS011;34634;44.108;3.074;2022-08-25T09:56:31;4.60;;;1.90;;
48813;SDS011;34634;44.108;3.074;2022-08-25T10:01:50;3.80;;;1.85;;
48813;SDS011;34634;44.108;3.074;2022-08-25T10:04:27;4.45;;;1.80;;
48813;SDS011;34634;44.108;3.074;2022-08-25T10:06:55;3.58;;;1.55;;
48813;SDS011;34634;44.108;3.074;2022-08-25T10:09:24;4.38;;;1.73;;
48813;SDS011;34634;44.108;3.074;2022-08-25T10:11:53;4.55;;;1.80;;
48813;SDS011;34634;44.108;3.074;2022-08-25T10:16:49;14.50;;;2.47;;
48813;SDS011;34634;44.108;3.074;2022-08-25T10:21:44;2.50;;;1.50;;
48813;SDS011;34634;44.108;3.074;2022-08-25T10:24:11;3.67;;;1.73;;
48813;SDS011;34634;44.108;3.074;2022-08-25T10:31:52;7.55;;;1.92;;
48813;SDS011;34634;44.108;3.074;2022-08-25T10:39:45;5.35;;;1.65;;
48813;SDS011;34634;44.108;3.074;2022-08-25T10:42:23;5.10;;;2.10;;
48813;SDS011;34634;44.108;3.074;2022-08-25T10:45:09;3.50;;;1.80;;
48813;SDS011;34634;44.108;3.074;2022-08-25T10:50:40;4.80;;;1.67;;
48813;SDS011;34634;44.108;3.074;2022-08-25T10:56:02;2.85;;;1.90;;
48813;SDS011;34634;44.108;3.074;2022-08-25T11:01:04;3.95;;;1.48;;
48813;SDS011;34634;44.108;3.074;2022-08-25T11:03:43;3.72;;;1.38;;
48813;SDS011;34634;44.108;3.074;2022-08-25T11:06:34;5.78;;;1.77;;
48813;SDS011;34634;44.108;3.074;2022-08-25T11:09:04;7.07;;;2.03;;
48813;SDS011;34634;44.108;3.074;2022-08-25T11:14:02;2.92;;;1.70;;
48813;SDS011;34634;44.108;3.074;2022-08-25T11:16:34;3.80;;;1.80;;
48813;SDS011;34634;44.108;3.074;2022-08-25T11:19:15;3.53;;;1.60;;
48813;SDS011;34634;44.108;3.074;2022-08-25T11:26:55;3.08;;;2.10;;
48813;SDS011;34634;44.108;3.074;2022-08-25T11:29:23;6.88;;;2.05;;
48813;SDS011;34634;44.108;3.074;2022-08-25T11:31:51;4.70;;;2.00;;
48813;SDS011;34634;44.108;3.074;2022-08-25T11:34:18;2.13;;;1.80;;
48813;SDS011;34634;44.108;3.074;2022-08-25T11:36:52;5.50;;;2.00;;
48813;SDS011;34634;44.108;3.074;2022-08-25T11:39:47;6.60;;;1.65;;
48813;SDS011;34634;44.108;3.074;2022-08-25T11:42:20;23.33;;;2.75;;
48813;SDS011;34634;44.108;3.074;2022-08-25T11:44:58;6.72;;;1.92;;
48813;SDS011;34634;44.108;3.074;2022-08-25T11:50:01;6.32;;;1.85;;
48813;SDS011;34634;44.108;3.074;2022-08-25T11:57:46;3.60;;;1.60;;
48813;SDS011;34634;44.108;3.074;2022-08-25T12:00:35;6.22;;;1.67;;
48813;SDS011;34634;44.108;3.074;2022-08-25T12:03:44;2.45;;;1.73;;
48813;SDS011;34634;44.108;3.074;2022-08-25T12:06:12;3.30;;;1.80;;
48813;SDS011;34634;44.108;3.074;2022-08-25T12:11:46;5.80;;;1.73;;
48813;SDS011;34634;44.108;3.074;2022-08-25T12:16:41;7.65;;;1.77;;
48813;SDS011;34634;44.108;3.074;2022-08-25T12:21:57;4.25;;;1.70;;
48813;SDS011;34634;44.108;3.074;2022-08-25T12:24:35;4.75;;;1.90;;
48813;SDS011;34634;44.108;3.074;2022-08-25T12:29:57;4.47;;;1.70;;
48813;SDS011;34634;44.108;3.074;2022-08-25T12:37:23;3.63;;;1.80;;
48813;SDS011;34634;44.108;3.074;2022-08-25T12:39:58;4.43;;;1.45;;
48813;SDS011;34634;44.108;3.074;2022-08-25T12:42:30;4.97;;;1.90;;
48813;SDS011;34634;44.108;3.074;2022-08-25T12:45:08;2.03;;;1.60;;
48813;SDS011;34634;44.108;3.074;2022-08-25T12:47:35;4.65;;;1.75;;
48813;SDS011;34634;44.108;3.074;2022-08-25T12:52:46;3.42;;;1.50;;
48813;SDS011;34634;44.108;3.074;2022-08-25T12:55:13;2.53;;;1.67;;
48813;SDS011;34634;44.108;3.074;2022-08-25T12:57:49;5.30;;;1.42;;
48813;SDS011;34634;44.108;3.074;2022-08-25T13:05:29;4.22;;;1.58;;
48813;SDS011;34634;44.108;3.074;2022-08-25T13:13:30;1.70;;;1.25;;
48813;SDS011;34634;44.108;3.074;2022-08-25T13:16:04;2.58;;;1.17;;
48813;SDS011;34634;44.108;3.074;2022-08-25T13:18:37;4.65;;;1.42;;
48813;SDS011;34634;44.108;3.074;2022-08-25T13:23:34;4.03;;;1.45;;
48813;SDS011;34634;44.108;3.074;2022-08-25T13:26:02;2.47;;;1.48;;
48813;SDS011;34634;44.108;3.074;2022-08-25T13:28:29;1.42;;;1.23;;
48813;SDS011;34634;44.108;3.074;2022-08-25T13:30:58;1.85;;;1.20;;
48813;SDS011;34634;44.108;3.074;2022-08-25T13:33:24;3.80;;;1.40;;
48813;SDS011;34634;44.108;3.074;2022-08-25T13:35:55;4.55;;;1.45;;
48813;SDS011;34634;44.108;3.074;2022-08-25T13:38:41;2.80;;;1.45;;
48813;SDS011;34634;44.108;3.074;2022-08-25T13:41:08;3.17;;;1.50;;
48813;SDS011;34634;44.108;3.074;2022-08-25T13:43:35;3.78;;;1.65;;
48813;SDS011;34634;44.108;3.074;2022-08-25T13:46:01;2.17;;;1.05;;
48813;SDS011;34634;44.108;3.074;2022-08-25T13:48:35;1.95;;;1.33;;
48813;SDS011;34634;44.108;3.074;2022-08-25T13:51:06;1.90;;;1.20;;
48813;SDS011;34634;44.108;3.074;2022-08-25T13:53:33;6.68;;;1.17;;
48813;SDS011;34634;44.108;3.074;2022-08-25T13:56:00;2.15;;;1.10;;
48813;SDS011;34634;44.108;3.074;2022-08-25T13:58:28;1.75;;;1.10;;
48813;SDS011;34634;44.108;3.074;2022-08-25T14:03:41;2.97;;;1.25;;
48813;SDS011;34634;44.108;3.074;2022-08-25T14:06:10;3.08;;;1.10;;
48813;SDS011;34634;44.108;3.074;2022-08-25T14:11:32;6.30;;;1.00;;
48813;SDS011;34634;44.108;3.074;2022-08-25T14:14:06;3.85;;;1.45;;
48813;SDS011;34634;44.108;3.074;2022-08-25T14:16:57;5.95;;;1.08;;
48813;SDS011;34634;44.108;3.074;2022-08-25T14:19:20;3.90;;;1.02;;
48813;SDS011;34634;44.108;3.074;2022-08-25T14:21:47;2.40;;;0.88;;
48813;SDS011;34634;44.108;3.074;2022-08-25T14:24:19;4.88;;;1.10;;
48813;SDS011;34634;44.108;3.074;2022-08-25T14:26:47;3.25;;;1.20;;
48813;SDS011;34634;44.108;3.074;2022-08-25T14:29:14;5.10;;;1.20;;
48813;SDS011;34634;44.108;3.074;2022-08-25T14:31:41;2.15;;;1.08;;
48813;SDS011;34634;44.108;3.074;2022-08-25T14:34:11;3.47;;;1.35;;
48813;SDS011;34634;44.108;3.074;2022-08-25T14:36:38;3.15;;;1.45;;
48813;SDS011;34634;44.108;3.074;2022-08-25T14:39:04;1.85;;;1.10;;
48813;SDS011;34634;44.108;3.074;2022-08-25T14:41:31;4.57;;;1.27;;
48813;SDS011;34634;44.108;3.074;2022-08-25T14:43:59;4.03;;;1.00;;
48813;SDS011;34634;44.108;3.074;2022-08-25T14:46:26;1.65;;;0.90;;
48813;SDS011;34634;44.108;3.074;2022-08-25T14:48:54;1.85;;;1.13;;
48813;SDS011;34634;44.108;3.074;2022-08-25T14:51:22;2.45;;;1.00;;
48813;SDS011;34634;44.108;3.074;2022-08-25T14:53:49;3.88;;;1.08;;
48813;SDS011;34634;44.108;3.074;2022-08-25T14:56:17;4.25;;;0.88;;
48813;SDS011;34634;44.108;3.074;2022-08-25T14:58:43;2.50;;;0.80;;
48813;SDS011;34634;44.108;3.074;2022-08-25T15:01:10;2.17;;;0.80;;
48813;SDS011;34634;44.108;3.074;2022-08-25T15:03:39;1.50;;;0.80;;
48813;SDS011;34634;44.108;3.074;2022-08-25T15:06:07;1.52;;;0.90;;
48813;SDS011;34634;44.108;3.074;2022-08-25T15:08:33;3.42;;;0.90;;
48813;SDS011;34634;44.108;3.074;2022-08-25T15:11:18;2.63;;;0.98;;
48813;SDS011;34634;44.108;3.074;2022-08-25T15:13:44;1.58;;;1.00;;
48813;SDS011;34634;44.108;3.074;2022-08-25T15:16:11;4.57;;;1.45;;
48813;SDS011;34634;44.108;3.074;2022-08-25T15:18:40;1.98;;;1.00;;
48813;SDS011;34634;44.108;3.074;2022-08-25T15:21:07;2.60;;;1.02;;
48813;SDS011;34634;44.108;3.074;2022-08-25T15:23:33;2.00;;;0.85;;
48813;SDS011;34634;44.108;3.074;2022-08-25T15:26:00;4.57;;;1.00;;
48813;SDS011;34634;44.108;3.074;2022-08-25T15:28:26;2.95;;;0.70;;
48813;SDS011;34634;44.108;3.074;2022-08-25T15:30:52;1.75;;;0.80;;
48813;SDS011;34634;44.108;3.074;2022-08-25T15:33:18;4.25;;;1.13;;
48813;SDS011;34634;44.108;3.074;2022-08-25T15:35:47;3.03;;;1.00;;
48813;SDS011;34634;44.108;3.074;2022-08-25T17:19:18;3.42;;;1.08;;
48813;SDS011;34634;44.108;3.074;2022-08-25T17:21:45;1.98;;;1.20;;
48813;SDS011;34634;44.108;3.074;2022-08-25T17:24:12;4.70;;;1.30;;
48813;SDS011;34634;44.108;3.074;2022-08-25T17:26:39;1.48;;;1.00;;
48813;SDS011;34634;44.108;3.074;2022-08-25T17:29:05;1.98;;;0.90;;
48813;SDS011;34634;44.108;3.074;2022-08-25T17:31:32;4.38;;;1.20;;
48813;SDS011;34634;44.108;3.074;2022-08-25T17:34:00;5.95;;;1.02;;
48813;SDS011;34634;44.108;3.074;2022-08-25T17:36:26;3.38;;;1.10;;
48813;SDS011;34634;44.108;3.074;2022-08-25T17:38:53;5.03;;;1.10;;
48813;SDS011;34634;44.108;3.074;2022-08-25T17:41:20;2.40;;;1.10;;
48813;SDS011;34634;44.108;3.074;2022-08-25T17:43:46;2.95;;;1.27;;
48813;SDS011;34634;44.108;3.074;2022-08-25T17:46:12;2.05;;;1.25;;
48813;SDS011;34634;44.108;3.074;2022-08-25T17:48:39;1.40;;;1.00;;
48813;SDS011;34634;44.108;3.074;2022-08-25T17:51:06;2.85;;;1.02;;
48813;SDS011;34634;44.108;3.074;2022-08-25T17:53:33;5.50;;;1.17;;
48813;SDS011;34634;44.108;3.074;2022-08-25T17:56:05;4.40;;;1.02;;
48813;SDS011;34634;44.108;3.074;2022-08-25T17:58:31;5.32;;;1.30;;
48813;SDS011;34634;44.108;3.074;2022-08-25T18:00:58;2.47;;;1.00;;
